createdAt,value
2022-11-15T00:00:57.485Z,8.93
2022-11-15T00:02:47.767Z,8.50
2022-11-15T00:04:38.192Z,8.98
2022-11-15T00:06:28.630Z,7.97
2022-11-15T00:08:19.053Z,7.97
2022-11-15T00:10:09.945Z,8.40
2022-11-15T00:12:01.374Z,8.60
2022-11-15T00:13:51.826Z,8.30
2022-11-15T00:15:42.434Z,8.15
2022-11-15T00:17:32.721Z,9.30
2022-11-15T00:19:23.292Z,8.60
2022-11-15T00:21:14.950Z,8.98
2022-11-15T00:23:05.964Z,8.82
2022-11-15T00:24:59.311Z,8.55
2022-11-15T00:26:49.666Z,9.27
2022-11-15T00:28:42.098Z,8.25
2022-11-15T00:30:32.313Z,8.55
2022-11-15T00:32:22.458Z,8.90
2022-11-15T00:34:13.053Z,9.57
2022-11-15T00:36:05.550Z,8.13
2022-11-15T00:37:55.589Z,8.43
2022-11-15T00:39:45.944Z,8.57
2022-11-15T00:41:36.486Z,8.55
2022-11-15T00:43:26.828Z,8.57
2022-11-15T00:45:19.752Z,8.52
2022-11-15T00:47:10.119Z,8.48
2022-11-15T00:49:00.408Z,8.65
2022-11-15T00:50:51.537Z,8.43
2022-11-15T00:52:41.765Z,8.88
2022-11-15T00:54:32.455Z,8.73
2022-11-15T00:56:22.991Z,9.13
2022-11-15T00:58:13.195Z,8.55
2022-11-15T01:00:04.802Z,8.85
2022-11-15T01:01:56.776Z,8.93
2022-11-15T01:03:47.010Z,8.20
2022-11-15T01:05:38.157Z,8.63
2022-11-15T01:07:28.268Z,8.68
2022-11-15T01:09:18.524Z,8.93
2022-11-15T01:11:11.283Z,9.57
2022-11-15T01:13:01.897Z,8.52
2022-11-15T01:14:52.323Z,8.57
2022-11-15T01:16:42.896Z,8.73
2022-11-15T01:18:34.953Z,8.38
2022-11-15T01:20:25.413Z,8.25
2022-11-15T01:22:15.964Z,7.75
2022-11-15T01:24:06.757Z,8.38
2022-11-15T01:25:59.989Z,8.85
2022-11-15T01:27:50.262Z,8.30
2022-11-15T01:29:40.568Z,8.27
2022-11-15T01:31:31.052Z,8.00
2022-11-15T01:33:21.626Z,8.15
2022-11-15T01:35:13.674Z,8.70
2022-11-15T01:37:03.884Z,7.95
2022-11-15T01:38:55.226Z,8.50
2022-11-15T01:40:45.362Z,8.40
2022-11-15T01:42:35.715Z,8.27
2022-11-15T01:44:44.290Z,8.63
2022-11-15T01:46:36.663Z,9.13
2022-11-15T01:48:32.982Z,8.48
2022-11-15T01:50:28.813Z,8.30
2022-11-15T01:52:23.256Z,7.97
2022-11-15T01:54:18.074Z,8.27
2022-11-15T01:56:11.815Z,7.85
2022-11-15T01:58:06.382Z,8.98
2022-11-15T01:59:58.199Z,8.52
2022-11-15T02:01:48.499Z,8.10
2022-11-15T02:03:46.503Z,8.00
2022-11-15T02:05:39.071Z,7.75
2022-11-15T02:07:31.359Z,8.70
2022-11-15T02:09:21.455Z,7.70
2022-11-15T02:11:11.991Z,8.75
2022-11-15T02:13:02.930Z,8.82
2022-11-15T02:14:55.274Z,8.80
2022-11-15T02:16:55.034Z,8.30
2022-11-15T02:18:51.558Z,8.13
2022-11-15T02:20:59.455Z,8.57
2022-11-15T02:23:05.388Z,8.10
2022-11-15T02:25:05.074Z,7.63
2022-11-15T02:27:55.022Z,8.00
2022-11-15T02:31:55.953Z,7.90
2022-11-15T02:33:54.103Z,8.32
2022-11-15T02:35:53.333Z,8.30
2022-11-15T02:37:50.589Z,8.38
2022-11-15T02:39:46.805Z,8.35
2022-11-15T02:41:45.516Z,8.65
2022-11-15T02:43:59.273Z,7.40
2022-11-15T02:45:53.908Z,8.32
2022-11-15T02:47:48.875Z,7.80
2022-11-15T02:49:40.950Z,8.38
2022-11-15T02:51:31.384Z,7.88
2022-11-15T02:53:25.154Z,8.50
2022-11-15T02:55:30.122Z,8.70
2022-11-15T02:57:31.663Z,8.95
2022-11-15T02:59:40.007Z,9.18
2022-11-15T03:01:42.523Z,8.32
2022-11-15T03:03:49.922Z,8.23
2022-11-15T03:05:47.705Z,8.43
2022-11-15T03:07:45.176Z,8.05
2022-11-15T03:09:40.843Z,8.52
2022-11-15T03:11:35.698Z,8.43
2022-11-15T03:13:28.591Z,9.02
2022-11-15T03:15:22.367Z,7.90
2022-11-15T03:17:19.610Z,8.88
2022-11-15T03:19:17.120Z,9.20
2022-11-15T03:21:12.281Z,8.02
2022-11-15T03:23:08.109Z,8.43
2022-11-15T03:25:05.146Z,8.85
2022-11-15T03:26:58.778Z,8.30
2022-11-15T03:28:52.871Z,8.85
2022-11-15T03:30:45.105Z,8.25
2022-11-15T03:32:39.684Z,7.80
2022-11-15T03:34:36.304Z,8.48
2022-11-15T03:36:27.939Z,8.20
2022-11-15T03:38:23.170Z,7.65
2022-11-15T03:40:14.938Z,8.00
2022-11-15T03:42:19.529Z,8.40
2022-11-15T03:44:17.485Z,8.07
2022-11-15T03:46:12.200Z,7.68
2022-11-15T03:48:06.088Z,7.65
2022-11-15T03:50:02.944Z,7.85
2022-11-15T03:51:53.287Z,8.55
2022-11-15T03:53:43.682Z,7.90
2022-11-15T03:55:34.844Z,7.45
2022-11-15T03:57:25.035Z,8.55
2022-11-15T03:59:15.458Z,8.50
2022-11-15T04:01:06.043Z,8.93
2022-11-15T04:02:56.948Z,8.52
2022-11-15T04:04:47.287Z,8.35
2022-11-15T04:06:38.980Z,8.77
2022-11-15T04:08:29.314Z,8.63
2022-11-15T04:10:19.852Z,8.70
2022-11-15T04:12:10.066Z,7.95
2022-11-15T04:14:00.411Z,7.45
2022-11-15T04:15:50.572Z,7.97
2022-11-15T04:17:43.607Z,7.78
2022-11-15T04:19:52.519Z,8.25
2022-11-15T04:22:02.830Z,8.45
2022-11-15T04:24:08.283Z,8.07
2022-11-15T04:26:01.141Z,7.68
2022-11-15T04:27:51.461Z,7.88
2022-11-15T04:29:41.861Z,8.20
2022-11-15T04:31:32.522Z,7.68
2022-11-15T04:33:22.833Z,7.80
2022-11-15T04:35:13.132Z,7.68
2022-11-15T04:37:13.641Z,7.50
2022-11-15T04:39:04.050Z,7.57
2022-11-15T04:40:54.323Z,7.60
2022-11-15T04:42:45.073Z,7.55
2022-11-15T04:44:35.133Z,7.40
2022-11-15T04:46:25.743Z,7.53
2022-11-15T04:48:15.897Z,7.25
2022-11-15T04:50:07.292Z,7.40
2022-11-15T04:51:57.621Z,7.35
2022-11-15T04:53:49.464Z,7.38
2022-11-15T04:55:39.705Z,7.22
2022-11-15T04:57:30.180Z,7.47
2022-11-15T04:59:20.693Z,7.28
2022-11-15T05:01:12.985Z,7.43
2022-11-15T05:03:22.290Z,7.28
2022-11-15T05:05:12.578Z,7.50
2022-11-15T05:07:05.071Z,6.90
2022-11-15T05:08:57.689Z,6.53
2022-11-15T05:10:48.654Z,7.15
2022-11-15T05:12:38.932Z,7.40
2022-11-15T05:14:30.175Z,7.32
2022-11-15T05:16:20.769Z,7.35
2022-11-15T05:18:11.010Z,7.55
2022-11-15T05:20:01.308Z,7.13
2022-11-15T05:21:51.346Z,7.30
2022-11-15T05:23:42.547Z,7.38
2022-11-15T05:25:34.044Z,7.38
2022-11-15T05:27:24.260Z,7.18
2022-11-15T05:29:14.764Z,6.70
2022-11-15T05:31:07.009Z,7.43
2022-11-15T05:32:57.642Z,7.30
2022-11-15T05:34:48.063Z,7.13
2022-11-15T05:36:39.394Z,7.35
2022-11-15T05:38:29.774Z,7.25
2022-11-15T05:40:19.927Z,7.05
2022-11-15T05:42:14.090Z,7.47
2022-11-15T05:44:08.600Z,7.85
2022-11-15T05:46:00.563Z,7.55
2022-11-15T05:47:51.627Z,7.10
2022-11-15T05:49:44.376Z,7.63
2022-11-15T05:51:35.100Z,7.55
2022-11-15T05:53:26.772Z,7.43
2022-11-15T05:55:17.148Z,7.32
2022-11-15T05:57:07.633Z,7.20
2022-11-15T05:59:00.174Z,7.25
2022-11-15T06:00:50.693Z,7.60
2022-11-15T06:02:41.342Z,7.20
2022-11-15T06:04:31.370Z,7.07
2022-11-15T06:06:21.592Z,7.90
2022-11-15T06:08:11.914Z,6.95
2022-11-15T06:10:02.275Z,6.97
2022-11-15T06:11:52.637Z,7.28
2022-11-15T06:13:42.833Z,7.32
2022-11-15T06:15:37.722Z,7.25
2022-11-15T06:17:27.880Z,7.28
2022-11-15T06:19:18.303Z,7.00
2022-11-15T06:21:08.591Z,7.57
2022-11-15T06:22:59.095Z,6.88
2022-11-15T06:24:49.740Z,8.13
2022-11-15T06:26:39.939Z,7.43
2022-11-15T06:28:30.629Z,7.13
2022-11-15T06:30:21.916Z,7.43
2022-11-15T06:32:13.621Z,7.03
2022-11-15T06:34:03.994Z,7.30
2022-11-15T06:35:54.333Z,7.22
2022-11-15T06:37:44.875Z,6.68
2022-11-15T06:39:36.165Z,6.00
2022-11-15T06:41:27.173Z,6.05
2022-11-15T06:43:17.668Z,5.93
2022-11-15T06:45:08.732Z,5.82
2022-11-15T06:46:58.825Z,5.45
2022-11-15T06:48:51.467Z,5.55
2022-11-15T06:50:42.418Z,5.80
2022-11-15T06:52:33.490Z,5.35
2022-11-15T06:54:24.927Z,4.95
2022-11-15T06:56:15.039Z,5.20
2022-11-15T06:58:05.489Z,5.00
2022-11-15T06:59:55.856Z,4.82
2022-11-15T07:01:46.284Z,4.47
2022-11-15T07:03:37.579Z,4.82
2022-11-15T07:05:29.509Z,4.53
2022-11-15T07:07:19.502Z,4.65
2022-11-15T07:09:09.827Z,4.43
2022-11-15T07:11:01.460Z,4.47
2022-11-15T07:12:51.827Z,4.72
2022-11-15T07:14:41.955Z,4.45
2022-11-15T07:16:32.339Z,4.13
2022-11-15T07:18:22.608Z,5.10
2022-11-15T07:20:16.788Z,4.78
2022-11-15T07:22:08.448Z,3.97
2022-11-15T07:23:58.503Z,4.70
2022-11-15T07:25:48.823Z,4.57
2022-11-15T07:27:39.170Z,4.85
2022-11-15T07:29:29.540Z,4.53
2022-11-15T07:31:19.903Z,4.45
2022-11-15T07:33:10.330Z,4.50
2022-11-15T07:35:00.894Z,4.53
2022-11-15T07:36:51.273Z,4.63
2022-11-15T07:38:43.349Z,6.85
2022-11-15T07:40:34.149Z,6.75
2022-11-15T07:42:42.705Z,5.03
2022-11-15T07:44:33.048Z,4.90
2022-11-15T07:46:23.325Z,5.15
2022-11-15T07:48:13.605Z,4.88
2022-11-15T07:50:04.385Z,4.80
2022-11-15T07:51:54.634Z,4.57
2022-11-15T07:53:46.416Z,4.70
2022-11-15T07:55:36.842Z,4.60
2022-11-15T07:57:27.257Z,4.50
2022-11-15T07:59:17.577Z,4.80
2022-11-15T08:01:10.296Z,4.65
2022-11-15T08:03:05.256Z,4.53
2022-11-15T08:04:55.268Z,4.45
2022-11-15T08:06:45.661Z,4.75
2022-11-15T08:08:36.016Z,4.65
2022-11-15T08:10:28.587Z,4.75
2022-11-15T08:12:19.128Z,5.00
2022-11-15T08:14:09.536Z,4.70
2022-11-15T08:16:00.498Z,4.85
2022-11-15T08:17:54.774Z,4.15
2022-11-15T08:19:45.057Z,5.10
2022-11-15T08:21:36.067Z,4.80
2022-11-15T08:23:26.445Z,4.93
2022-11-15T08:25:17.532Z,5.03
2022-11-15T08:27:16.015Z,5.70
2022-11-15T08:29:06.608Z,6.15
2022-11-15T08:30:56.563Z,4.63
2022-11-15T08:32:46.897Z,4.88
2022-11-15T08:34:37.583Z,4.90
2022-11-15T08:36:32.115Z,4.10
2022-11-15T08:38:30.105Z,4.13
2022-11-15T08:40:21.339Z,3.67
2022-11-15T08:42:19.495Z,3.88
2022-11-15T08:44:10.123Z,3.95
2022-11-15T08:46:00.405Z,3.97
2022-11-15T08:47:54.160Z,3.88
2022-11-15T08:49:45.069Z,4.07
2022-11-15T08:51:35.544Z,3.65
2022-11-15T08:53:26.046Z,3.83
2022-11-15T08:55:17.687Z,3.75
2022-11-15T08:57:10.323Z,3.70
2022-11-15T08:59:01.797Z,3.80
2022-11-15T09:00:51.731Z,3.55
2022-11-15T09:02:42.030Z,3.83
2022-11-15T09:04:33.096Z,3.55
2022-11-15T09:06:23.251Z,3.38
2022-11-15T09:08:40.730Z,3.40
2022-11-15T09:10:25.117Z,3.47
2022-11-15T09:12:15.151Z,2.80
2022-11-15T09:14:06.700Z,2.78
2022-11-15T09:15:59.098Z,3.15
2022-11-15T09:17:49.072Z,2.60
2022-11-15T09:19:39.369Z,3.20
2022-11-15T09:21:29.904Z,2.85
2022-11-15T09:23:20.910Z,3.00
2022-11-15T09:25:11.375Z,2.97
2022-11-15T09:27:01.808Z,2.90
2022-11-15T09:28:52.341Z,3.20
2022-11-15T09:30:44.140Z,2.90
2022-11-15T09:32:39.034Z,2.60
2022-11-15T09:34:29.681Z,3.00
2022-11-15T09:36:20.071Z,2.70
2022-11-15T09:38:10.673Z,2.67
2022-11-15T09:40:00.771Z,2.60
2022-11-15T09:42:20.028Z,2.40
2022-11-15T09:44:34.445Z,2.38
2022-11-15T09:46:38.868Z,2.65
2022-11-15T09:48:54.046Z,2.67
2022-11-15T09:50:43.120Z,2.97
2022-11-15T09:52:14.873Z,2.40
2022-11-15T09:55:51.956Z,2.45
2022-11-15T09:59:18.134Z,2.60
2022-11-15T10:00:53.758Z,2.72
2022-11-15T10:02:44.018Z,2.45
2022-11-15T10:05:49.675Z,2.50
2022-11-15T10:07:27.641Z,2.40
2022-11-15T10:09:02.550Z,2.63
2022-11-15T10:10:40.283Z,2.13
2022-11-15T10:12:14.894Z,3.00
2022-11-15T10:13:51.554Z,2.13
2022-11-15T10:15:23.844Z,2.40
2022-11-15T10:17:10.435Z,2.72
2022-11-15T10:18:54.092Z,2.50
2022-11-15T10:20:28.363Z,2.40
2022-11-15T10:22:13.273Z,2.45
2022-11-15T10:23:44.981Z,2.50
2022-11-15T10:25:21.057Z,2.85
2022-11-15T10:26:56.098Z,2.40
2022-11-15T10:28:29.848Z,2.58
2022-11-15T10:30:04.724Z,2.67
2022-11-15T10:31:41.758Z,2.35
2022-11-15T10:33:36.220Z,2.58
2022-11-15T10:35:26.121Z,2.65
2022-11-15T10:36:59.326Z,2.40
2022-11-15T10:38:31.202Z,2.67
2022-11-15T10:40:15.293Z,2.50
2022-11-15T10:41:47.085Z,2.70
2022-11-15T10:43:19.999Z,2.47
2022-11-15T10:44:51.690Z,2.35
2022-11-15T10:46:45.701Z,2.50
2022-11-15T10:48:24.735Z,2.38
2022-11-15T10:50:02.744Z,2.55
2022-11-15T10:51:43.951Z,2.25
2022-11-15T10:53:22.586Z,2.30
2022-11-15T10:54:58.337Z,2.50
2022-11-15T10:56:30.039Z,2.10
2022-11-15T10:58:05.071Z,2.00
2022-11-15T10:59:39.379Z,2.38
2022-11-15T11:01:14.906Z,2.10
2022-11-15T11:02:57.817Z,3.05
2022-11-15T11:04:29.503Z,2.40
2022-11-15T11:06:07.372Z,2.40
2022-11-15T11:07:41.606Z,2.00
2022-11-15T11:09:29.883Z,2.00
2022-11-15T11:11:04.203Z,2.03
2022-11-15T11:12:36.003Z,2.38
2022-11-15T11:14:13.234Z,2.10
2022-11-15T11:15:48.231Z,2.08
2022-11-15T11:17:28.652Z,1.95
2022-11-15T11:19:14.508Z,2.17
2022-11-15T11:20:51.382Z,2.10
2022-11-15T11:22:31.408Z,2.10
2022-11-15T11:25:49.205Z,3.03
2022-11-15T11:27:37.370Z,2.10
2022-11-15T11:29:26.762Z,1.73
2022-11-15T11:31:07.789Z,1.80
2022-11-15T11:33:00.602Z,2.20
2022-11-15T11:34:45.798Z,1.63
2022-11-15T11:36:25.498Z,2.00
2022-11-15T11:38:14.628Z,2.00
2022-11-15T11:40:02.948Z,2.22
2022-11-15T11:42:00.425Z,1.98
2022-11-15T11:43:41.232Z,1.80
2022-11-15T11:45:19.941Z,1.60
2022-11-15T11:46:56.646Z,2.08
2022-11-15T11:48:42.595Z,2.17
2022-11-15T11:50:18.986Z,2.00
2022-11-15T11:51:56.551Z,1.85
2022-11-15T11:53:36.386Z,1.77
2022-11-15T11:55:16.106Z,2.13
2022-11-15T11:56:49.340Z,1.75
2022-11-15T11:58:27.044Z,2.92
2022-11-15T12:00:04.555Z,1.45
2022-11-15T12:01:45.951Z,1.70
2022-11-15T12:03:26.008Z,1.73
2022-11-15T12:06:38.631Z,1.73
2022-11-15T12:08:33.611Z,2.20
2022-11-15T12:10:16.401Z,2.08
2022-11-15T12:11:55.941Z,1.75
2022-11-15T12:13:34.283Z,1.90
2022-11-15T12:15:16.750Z,1.50
2022-11-15T12:16:48.418Z,2.00
2022-11-15T12:18:20.432Z,1.55
2022-11-15T12:19:53.390Z,1.90
2022-11-15T12:21:33.590Z,1.65
2022-11-15T12:23:11.848Z,1.65
2022-11-15T12:24:47.547Z,1.98
2022-11-15T12:26:24.653Z,1.95
2022-11-15T12:28:02.975Z,1.67
2022-11-15T12:29:38.221Z,1.70
2022-11-15T12:31:14.997Z,2.00
2022-11-15T12:32:53.722Z,1.70
2022-11-15T12:34:40.745Z,2.50
2022-11-15T12:36:33.370Z,1.92
2022-11-15T12:38:09.683Z,1.58
2022-11-15T12:40:19.069Z,2.13
2022-11-15T12:42:43.806Z,1.60
2022-11-15T12:44:59.868Z,1.98
2022-11-15T12:47:03.288Z,2.13
2022-11-15T12:48:51.831Z,1.83
2022-11-15T12:50:57.038Z,1.83
2022-11-15T12:52:28.758Z,1.45
2022-11-15T12:54:00.424Z,1.65
2022-11-15T12:55:33.857Z,2.10
2022-11-15T12:57:30.952Z,1.70
2022-11-15T12:59:06.146Z,2.28
2022-11-15T13:00:39.884Z,1.77
2022-11-15T13:02:19.789Z,2.08
2022-11-15T13:05:57.963Z,1.60
2022-11-15T13:07:57.127Z,1.98
2022-11-15T13:10:02.391Z,2.15
2022-11-15T13:11:45.578Z,1.70
2022-11-15T13:13:45.391Z,2.03
2022-11-15T13:15:41.270Z,2.20
2022-11-15T13:17:43.265Z,1.85
2022-11-15T13:19:15.722Z,1.73
2022-11-15T13:20:47.344Z,1.95
2022-11-15T13:22:37.636Z,2.00
2022-11-15T13:24:17.452Z,2.40
2022-11-15T13:26:14.398Z,2.08
2022-11-15T13:27:48.338Z,2.00
2022-11-15T13:29:21.113Z,1.88
2022-11-15T13:30:57.034Z,2.53
2022-11-15T13:32:28.756Z,2.50
2022-11-15T13:34:36.592Z,2.80
2022-11-15T13:36:10.044Z,2.42
2022-11-15T13:37:42.036Z,2.35
2022-11-15T13:39:26.094Z,2.20
2022-11-15T13:40:59.298Z,1.90
2022-11-15T13:42:31.211Z,1.90
2022-11-15T13:44:05.085Z,2.20
2022-11-15T13:45:36.703Z,2.30
2022-11-15T13:47:15.267Z,2.03
2022-11-15T13:48:51.699Z,2.30
2022-11-15T13:50:33.317Z,2.28
2022-11-15T13:52:07.184Z,2.30
2022-11-15T13:53:43.414Z,2.13
2022-11-15T13:55:19.687Z,2.15
2022-11-15T13:56:56.775Z,1.95
2022-11-15T13:58:28.526Z,2.15
2022-11-15T14:00:04.264Z,2.33
2022-11-15T14:01:44.492Z,2.00
2022-11-15T14:03:20.691Z,2.55
2022-11-15T14:04:55.052Z,2.83
2022-11-15T14:06:29.770Z,1.88
2022-11-15T14:08:04.165Z,2.38
2022-11-15T14:09:37.622Z,2.33
2022-11-15T14:11:14.542Z,2.40
2022-11-15T14:12:52.748Z,8.40
2022-11-15T14:14:25.772Z,2.40
2022-11-15T14:16:14.385Z,2.40
2022-11-15T14:17:50.013Z,2.35
2022-11-15T14:19:37.191Z,2.20
2022-11-15T14:21:09.622Z,2.53
2022-11-15T14:22:52.634Z,2.80
2022-11-15T14:24:31.431Z,2.60
2022-11-15T14:26:11.542Z,2.80
2022-11-15T14:27:45.597Z,2.80
2022-11-15T14:29:24.822Z,3.08
2022-11-15T14:30:58.892Z,3.08
2022-11-15T14:32:40.606Z,2.90
2022-11-15T14:34:12.233Z,3.00
2022-11-15T14:35:43.868Z,2.80
2022-11-15T14:37:24.667Z,2.70
2022-11-15T14:38:59.156Z,3.10
2022-11-15T14:40:30.852Z,3.00
2022-11-15T14:42:02.480Z,3.30
2022-11-15T14:43:34.101Z,3.03
2022-11-15T14:45:12.934Z,3.30
2022-11-15T14:46:44.671Z,3.28
2022-11-15T14:48:16.272Z,3.47
2022-11-15T14:49:48.438Z,3.30
2022-11-15T14:51:20.254Z,3.15
2022-11-15T14:52:51.998Z,3.65
2022-11-15T14:54:25.324Z,4.05
2022-11-15T14:55:56.960Z,3.47
2022-11-15T14:57:28.952Z,3.70
2022-11-15T14:59:01.025Z,3.25
2022-11-15T15:00:35.364Z,3.65
2022-11-15T15:02:15.828Z,3.67
2022-11-15T15:03:47.509Z,3.60
2022-11-15T15:05:21.076Z,3.53
2022-11-15T15:06:52.876Z,3.63
2022-11-15T15:08:25.046Z,3.45
2022-11-15T15:10:17.770Z,3.45
2022-11-15T15:11:49.723Z,3.55
2022-11-15T15:13:24.153Z,3.33
2022-11-15T15:14:55.787Z,3.05
2022-11-15T15:16:27.509Z,3.70
2022-11-15T15:17:59.166Z,3.25
2022-11-15T15:19:30.814Z,3.88
2022-11-15T15:21:08.400Z,3.45
2022-11-15T15:22:40.615Z,3.42
2022-11-15T15:24:15.659Z,3.60
2022-11-15T15:25:49.979Z,3.30
2022-11-15T15:27:21.806Z,3.42
2022-11-15T15:28:53.522Z,3.63
2022-11-15T15:30:26.139Z,3.65
2022-11-15T15:31:57.913Z,3.60
2022-11-15T15:33:29.618Z,3.45
2022-11-15T15:35:03.592Z,4.28
2022-11-15T15:36:35.239Z,3.65
2022-11-15T15:38:06.959Z,3.40
2022-11-15T15:39:39.190Z,3.85
2022-11-15T15:41:14.126Z,4.22
2022-11-15T15:42:46.034Z,3.90
2022-11-15T15:44:17.672Z,3.42
2022-11-15T15:45:49.572Z,3.80
2022-11-15T15:47:23.432Z,3.50
2022-11-15T15:48:55.988Z,3.50
2022-11-15T15:50:29.861Z,3.65
2022-11-15T15:52:02.058Z,3.30
2022-11-15T15:53:34.429Z,3.65
2022-11-15T15:55:06.861Z,3.95
2022-11-15T15:56:39.862Z,3.47
2022-11-15T15:58:12.022Z,3.47
2022-11-15T15:59:43.702Z,3.90
2022-11-15T16:01:15.425Z,3.60
2022-11-15T16:02:47.367Z,3.40
2022-11-15T16:04:19.693Z,3.78
2022-11-15T16:05:51.961Z,3.92
2022-11-15T16:07:26.291Z,3.85
2022-11-15T16:09:14.226Z,3.97
2022-11-15T16:10:48.003Z,3.28
2022-11-15T16:12:21.107Z,3.35
2022-11-15T16:13:52.827Z,3.60
2022-11-15T16:15:27.101Z,3.40
2022-11-15T16:16:58.774Z,3.65
2022-11-15T16:18:31.085Z,3.20
2022-11-15T16:20:03.689Z,3.53
2022-11-15T16:21:35.480Z,3.72
2022-11-15T16:23:10.061Z,3.28
2022-11-15T16:24:41.946Z,3.80
2022-11-15T16:26:21.025Z,3.13
2022-11-15T16:27:54.266Z,3.13
2022-11-15T16:29:26.106Z,3.70
2022-11-15T16:31:04.191Z,3.10
2022-11-15T16:32:36.142Z,3.58
2022-11-15T16:34:07.995Z,3.45
2022-11-15T16:35:40.040Z,3.35
2022-11-15T16:37:23.699Z,3.38
2022-11-15T16:38:55.417Z,3.03
2022-11-15T16:40:30.887Z,3.33
2022-11-15T16:42:03.936Z,3.42
2022-11-15T16:43:38.154Z,3.60
2022-11-15T16:45:12.276Z,3.72
2022-11-15T16:46:51.676Z,3.33
2022-11-15T16:48:25.508Z,3.22
2022-11-15T16:49:57.260Z,3.00
2022-11-15T16:51:28.996Z,3.40
2022-11-15T16:53:01.147Z,6.22
2022-11-15T16:54:32.906Z,3.90
2022-11-15T16:56:05.082Z,3.72
2022-11-15T16:57:37.438Z,3.35
2022-11-15T16:59:16.142Z,3.58
2022-11-15T17:00:52.082Z,3.83
2022-11-15T17:02:23.747Z,3.20
2022-11-15T17:03:55.926Z,3.10
2022-11-15T17:05:27.887Z,3.42
2022-11-15T17:07:01.116Z,3.03
2022-11-15T17:08:34.514Z,3.60
2022-11-15T17:10:10.280Z,3.17
2022-11-15T17:11:42.979Z,3.15
2022-11-15T17:13:14.810Z,3.60
2022-11-15T17:14:47.893Z,3.67
2022-11-15T17:16:19.534Z,3.60
2022-11-15T17:17:52.460Z,3.30
2022-11-15T17:19:24.126Z,3.47
2022-11-15T17:20:56.950Z,3.20
2022-11-15T17:22:28.685Z,3.10
2022-11-15T17:24:00.560Z,3.25
2022-11-15T17:25:32.664Z,3.30
2022-11-15T17:27:04.287Z,3.40
2022-11-15T17:28:35.924Z,3.17
2022-11-15T17:30:11.988Z,3.30
2022-11-15T17:31:44.268Z,3.25
2022-11-15T17:33:16.006Z,3.35
2022-11-15T17:34:47.660Z,3.08
2022-11-15T17:36:22.812Z,3.42
2022-11-15T17:37:54.847Z,3.10
2022-11-15T17:39:26.536Z,2.90
2022-11-15T17:41:03.186Z,2.83
2022-11-15T17:42:35.155Z,3.35
2022-11-15T17:44:06.960Z,3.55
2022-11-15T17:45:42.294Z,3.17
2022-11-15T17:47:14.100Z,2.72
2022-11-15T17:48:46.479Z,3.10
2022-11-15T17:50:18.160Z,3.40
2022-11-15T17:51:52.300Z,3.25
2022-11-15T17:53:24.399Z,3.40
2022-11-15T17:54:56.217Z,3.03
2022-11-15T17:56:30.580Z,3.05
2022-11-15T17:58:02.201Z,3.08
2022-11-15T17:59:33.897Z,3.03
2022-11-15T18:01:09.133Z,3.33
2022-11-15T18:02:40.879Z,3.28
2022-11-15T18:04:14.831Z,3.17
2022-11-15T18:05:46.481Z,3.55
2022-11-15T18:07:18.117Z,3.30
2022-11-15T18:08:51.679Z,3.67
2022-11-15T18:10:23.340Z,3.30
2022-11-15T18:11:54.985Z,3.42
2022-11-15T18:13:26.686Z,3.35
2022-11-15T18:15:00.016Z,3.42
2022-11-15T18:16:34.660Z,3.50
2022-11-15T18:18:06.428Z,3.50
2022-11-15T18:19:38.168Z,3.63
2022-11-15T18:21:13.265Z,3.50
2022-11-15T18:22:44.934Z,3.70
2022-11-15T18:24:16.555Z,3.42
2022-11-15T18:25:51.441Z,3.92
2022-11-15T18:27:23.129Z,3.72
2022-11-15T18:28:56.345Z,3.92
2022-11-15T18:30:28.040Z,4.18
2022-11-15T18:32:03.904Z,3.80
2022-11-15T18:33:38.876Z,4.38
2022-11-15T18:35:10.536Z,4.35
2022-11-15T18:36:43.856Z,4.32
2022-11-15T18:38:15.536Z,4.28
2022-11-15T18:39:51.118Z,4.55
2022-11-15T18:41:28.627Z,4.40
2022-11-15T18:43:00.268Z,4.50
2022-11-15T18:44:32.097Z,4.82
2022-11-15T18:46:04.365Z,4.63
2022-11-15T18:47:37.697Z,4.93
2022-11-15T18:49:10.463Z,4.55
2022-11-15T18:50:42.123Z,4.60
2022-11-15T18:52:13.746Z,4.57
2022-11-15T18:53:45.780Z,5.05
2022-11-15T18:55:17.507Z,4.55
2022-11-15T18:56:49.162Z,4.85
2022-11-15T18:58:20.740Z,4.40
2022-11-15T18:59:53.455Z,4.28
2022-11-15T19:01:27.800Z,4.28
2022-11-15T19:03:00.896Z,4.63
2022-11-15T19:04:32.597Z,4.50
2022-11-15T19:06:05.355Z,4.60
2022-11-15T19:08:00.194Z,4.97
2022-11-15T19:10:29.414Z,4.20
2022-11-15T19:12:41.906Z,4.78
2022-11-15T19:14:14.890Z,4.63
2022-11-15T19:15:46.595Z,4.55
2022-11-15T19:17:18.182Z,5.13
2022-11-15T19:18:54.603Z,4.63
2022-11-15T19:20:26.340Z,5.55
2022-11-15T19:21:58.035Z,4.88
2022-11-15T19:23:33.003Z,4.90
2022-11-15T19:25:05.643Z,4.60
2022-11-15T19:26:38.153Z,5.10
2022-11-15T19:28:11.770Z,5.35
2022-11-15T19:29:43.496Z,6.07
2022-11-15T19:31:16.863Z,5.10
2022-11-15T19:32:48.456Z,5.88
2022-11-15T19:34:21.484Z,5.68
2022-11-15T19:36:00.022Z,5.35
2022-11-15T19:37:31.704Z,5.32
2022-11-15T19:39:08.296Z,5.85
2022-11-15T19:40:40.387Z,6.38
2022-11-15T19:42:12.399Z,5.97
2022-11-15T19:43:44.629Z,5.90
2022-11-15T19:45:16.386Z,6.53
2022-11-15T19:46:48.121Z,7.70
2022-11-15T19:48:19.836Z,7.07
2022-11-15T19:49:52.879Z,7.57
2022-11-15T19:51:26.324Z,6.55
2022-11-15T19:52:59.685Z,6.18
2022-11-15T19:54:31.360Z,6.45
2022-11-15T19:56:05.195Z,6.25
2022-11-15T19:57:36.922Z,6.50
2022-11-15T19:59:11.432Z,6.38
2022-11-15T20:00:43.188Z,6.53
2022-11-15T20:02:14.924Z,5.90
2022-11-15T20:03:47.884Z,6.18
2022-11-15T20:05:20.962Z,6.75
2022-11-15T20:06:53.262Z,6.50
2022-11-15T20:08:24.988Z,6.60
2022-11-15T20:09:56.672Z,6.60
2022-11-15T20:11:28.575Z,6.82
2022-11-15T20:13:00.310Z,7.43
2022-11-15T20:14:32.064Z,6.50
2022-11-15T20:16:05.103Z,6.70
2022-11-15T20:17:36.718Z,6.82
2022-11-15T20:19:08.902Z,7.05
2022-11-15T20:20:44.286Z,6.57
2022-11-15T20:22:16.061Z,6.90
2022-11-15T20:23:48.200Z,6.82
2022-11-15T20:25:20.034Z,7.30
2022-11-15T20:26:51.690Z,6.65
2022-11-15T20:28:25.269Z,6.90
2022-11-15T20:29:59.493Z,6.88
2022-11-15T20:31:31.728Z,6.75
2022-11-15T20:33:03.524Z,7.65
2022-11-15T20:34:35.222Z,7.05
2022-11-15T20:36:11.757Z,7.25
2022-11-15T20:37:43.418Z,7.10
2022-11-15T20:39:15.057Z,7.22
2022-11-15T20:40:48.004Z,7.18
2022-11-15T20:42:19.612Z,7.28
2022-11-15T20:43:51.784Z,7.18
2022-11-15T20:45:23.513Z,6.80
2022-11-15T20:46:55.224Z,7.45
2022-11-15T20:48:27.268Z,7.47
2022-11-15T20:50:14.975Z,7.25
2022-11-15T20:51:51.954Z,6.80
2022-11-15T20:53:25.011Z,7.10
2022-11-15T20:54:59.770Z,7.65
2022-11-15T20:56:31.381Z,7.13
2022-11-15T20:58:03.009Z,7.25
2022-11-15T20:59:34.891Z,7.07
2022-11-15T21:01:08.154Z,7.43
2022-11-15T21:02:39.916Z,6.60
2022-11-15T21:04:11.580Z,7.63
2022-11-15T21:05:44.441Z,7.38
2022-11-15T21:07:17.612Z,7.50
2022-11-15T21:09:08.692Z,7.90
2022-11-15T21:10:59.414Z,7.50
2022-11-15T21:12:32.202Z,7.90
2022-11-15T21:14:08.957Z,7.85
2022-11-15T21:15:41.055Z,7.68
2022-11-15T21:17:12.826Z,7.70
2022-11-15T21:18:44.847Z,8.05
2022-11-15T21:20:17.140Z,7.93
2022-11-15T21:21:48.846Z,8.00
2022-11-15T21:23:22.215Z,8.00
2022-11-15T21:24:54.257Z,7.68
2022-11-15T21:26:26.010Z,6.90
2022-11-15T21:27:57.652Z,7.57
2022-11-15T21:29:36.342Z,7.70
2022-11-15T21:31:08.991Z,8.10
2022-11-15T21:32:40.730Z,7.28
2022-11-15T21:34:12.742Z,7.88
2022-11-15T21:35:44.653Z,7.93
2022-11-15T21:37:16.343Z,7.78
2022-11-15T21:38:49.672Z,7.78
2022-11-15T21:40:21.320Z,7.60
2022-11-15T21:41:53.014Z,7.47
2022-11-15T21:43:24.921Z,8.20
2022-11-15T21:44:56.559Z,7.97
2022-11-15T21:46:29.601Z,7.60
2022-11-15T21:48:01.286Z,7.85
2022-11-15T21:49:33.062Z,6.95
2022-11-15T21:51:07.535Z,7.85
2022-11-15T21:52:39.204Z,7.38
2022-11-15T21:54:12.353Z,7.20
2022-11-15T21:55:44.473Z,7.80
2022-11-15T21:57:16.596Z,7.25
2022-11-15T21:58:48.307Z,7.05
2022-11-15T22:00:38.435Z,6.95
2022-11-15T22:03:46.664Z,7.05
2022-11-15T22:05:18.461Z,7.18
2022-11-15T22:06:50.333Z,7.15
2022-11-15T22:08:22.625Z,7.15
2022-11-15T22:09:55.661Z,7.13
2022-11-15T22:11:27.784Z,7.15
2022-11-15T22:12:59.472Z,6.80
2022-11-15T22:14:31.158Z,7.53
2022-11-15T22:16:02.935Z,7.35
2022-11-15T22:17:53.039Z,7.32
2022-11-15T22:20:58.934Z,7.03
2022-11-15T22:22:30.976Z,6.97
2022-11-15T22:24:03.198Z,7.32
2022-11-15T22:25:36.486Z,7.35
2022-11-15T22:27:08.286Z,6.85
2022-11-15T22:28:40.357Z,7.65
2022-11-15T22:30:13.762Z,7.40
2022-11-15T22:31:45.467Z,7.63
2022-11-15T22:33:19.885Z,6.80
2022-11-15T22:34:53.958Z,7.82
2022-11-15T22:36:35.828Z,6.85
2022-11-15T22:38:16.136Z,7.33
2022-11-15T22:39:48.164Z,7.50
2022-11-15T22:41:24.044Z,7.50
2022-11-15T22:42:55.873Z,7.75
2022-11-15T22:44:27.787Z,7.65
2022-11-15T22:46:02.296Z,7.78
2022-11-15T22:47:34.040Z,7.65
2022-11-15T22:49:06.663Z,7.32
2022-11-15T22:50:40.528Z,7.55
2022-11-15T22:52:13.213Z,7.78
2022-11-15T22:53:44.937Z,7.70
2022-11-15T22:55:17.224Z,7.20
2022-11-15T22:56:50.638Z,6.40
2022-11-15T22:58:24.207Z,6.78
2022-11-15T22:59:56.119Z,7.20
2022-11-15T23:01:27.935Z,7.30